createdAt,value
2023-02-14T00:01:23.257Z,100.00
2023-02-14T00:04:26.259Z,100.00
2023-02-14T00:07:27.352Z,100.00
2023-02-14T00:10:28.314Z,100.00
2023-02-14T00:13:29.262Z,100.00
2023-02-14T00:16:29.333Z,100.00
2023-02-14T00:19:30.268Z,100.00
2023-02-14T00:22:32.261Z,100.00
2023-02-14T00:25:33.470Z,100.00
2023-02-14T00:28:33.277Z,100.00
2023-02-14T00:31:34.568Z,100.00
2023-02-14T00:34:42.340Z,100.00
2023-02-14T00:37:43.304Z,100.00
2023-02-14T00:40:44.375Z,100.00
2023-02-14T00:43:44.359Z,100.00
2023-02-14T00:46:45.503Z,100.00
2023-02-14T00:49:45.301Z,100.00
2023-02-14T00:52:45.335Z,100.00
2023-02-14T00:55:45.401Z,100.00
2023-02-14T00:58:46.511Z,100.00
2023-02-14T01:01:47.450Z,100.00
2023-02-14T01:04:47.377Z,100.00
2023-02-14T01:07:48.340Z,100.00
2023-02-14T01:10:50.329Z,100.00
2023-02-14T01:13:53.562Z,100.00
2023-02-14T01:16:54.917Z,100.00
2023-02-14T01:19:56.453Z,100.00
2023-02-14T01:23:05.378Z,100.00
2023-02-14T01:26:05.416Z,100.00
2023-02-14T01:29:06.364Z,100.00
2023-02-14T01:32:07.563Z,100.00
2023-02-14T01:35:13.469Z,100.00
2023-02-14T01:38:17.674Z,100.00
2023-02-14T01:41:19.447Z,100.00
2023-02-14T01:44:41.541Z,100.00
2023-02-14T01:47:43.444Z,100.00
2023-02-14T01:50:38.552Z,100.00
2023-02-14T01:53:40.525Z,100.00
2023-02-14T01:56:43.509Z,100.00
2023-02-14T01:59:47.467Z,100.00
2023-02-14T02:02:47.542Z,100.00
2023-02-14T02:05:54.433Z,100.00
2023-02-14T02:09:37.465Z,100.00
2023-02-14T02:12:37.487Z,100.00
2023-02-14T02:15:39.486Z,100.00
2023-02-14T02:18:48.485Z,100.00
2023-02-14T02:22:13.472Z,100.00
2023-02-14T02:25:34.489Z,100.00
2023-02-14T02:28:56.498Z,100.00
2023-02-14T02:32:07.729Z,100.00
2023-02-14T02:35:28.505Z,100.00
2023-02-14T02:38:41.587Z,100.00
2023-02-14T02:42:10.619Z,100.00
2023-02-14T02:45:26.556Z,100.00
2023-02-14T02:48:29.604Z,100.00
2023-02-14T02:51:51.559Z,100.00
2023-02-14T02:54:55.538Z,100.00
2023-02-14T02:57:56.544Z,100.00
2023-02-14T03:00:57.862Z,100.00
2023-02-14T03:04:17.540Z,100.00
2023-02-14T03:07:36.674Z,100.00
2023-02-14T03:10:43.605Z,100.00
2023-02-14T03:13:45.759Z,100.00
2023-02-14T03:17:14.250Z,100.00
2023-02-14T03:20:27.622Z,100.00
2023-02-14T03:23:43.586Z,100.00
2023-02-14T03:27:00.621Z,100.00
2023-02-14T03:30:18.626Z,100.00
2023-02-14T03:33:31.720Z,100.00
2023-02-14T03:36:33.631Z,100.00
2023-02-14T03:39:36.626Z,100.00
2023-02-14T03:42:42.641Z,100.00
2023-02-14T03:45:48.633Z,100.00
2023-02-14T03:48:49.625Z,100.00
2023-02-14T03:51:49.600Z,100.00
2023-02-14T03:54:49.637Z,100.00
2023-02-14T03:58:11.677Z,100.00
2023-02-14T04:01:16.738Z,100.00
2023-02-14T04:04:19.634Z,100.00
2023-02-14T04:07:29.666Z,100.00
2023-02-14T04:10:29.736Z,100.00
2023-02-14T04:13:31.694Z,100.00
2023-02-14T04:16:31.690Z,100.00
2023-02-14T04:19:31.673Z,100.00
2023-02-14T04:22:31.724Z,100.00
2023-02-14T04:25:33.695Z,100.00
2023-02-14T04:28:33.738Z,100.00
2023-02-14T04:31:33.859Z,100.00
2023-02-14T04:34:33.741Z,100.00
2023-02-14T04:37:33.713Z,100.00
2023-02-14T04:40:35.787Z,100.00
2023-02-14T04:43:35.717Z,100.00
2023-02-14T04:46:38.035Z,100.00
2023-02-14T04:49:38.779Z,100.00
2023-02-14T04:52:39.844Z,100.00
2023-02-14T04:55:39.824Z,100.00
2023-02-14T04:58:42.161Z,100.00
2023-02-14T05:01:42.797Z,100.00
2023-02-14T05:04:44.745Z,100.00
2023-02-14T05:07:44.738Z,100.00
2023-02-14T05:10:46.755Z,100.00
2023-02-14T05:13:47.766Z,100.00
2023-02-14T05:16:48.924Z,100.00
2023-02-14T05:19:53.087Z,100.00
2023-02-14T05:22:54.972Z,100.00
2023-02-14T05:25:54.808Z,100.00
2023-02-14T05:28:57.836Z,100.00
2023-02-14T05:31:59.964Z,100.00
2023-02-14T05:35:03.489Z,100.00
2023-02-14T05:38:04.827Z,100.00
2023-02-14T05:41:07.824Z,100.00
2023-02-14T05:44:12.575Z,100.00
2023-02-14T05:47:17.851Z,100.00
2023-02-14T05:50:22.875Z,100.00
2023-02-14T05:53:24.347Z,100.00
2023-02-14T05:56:25.835Z,100.00
2023-02-14T05:59:25.926Z,100.00
2023-02-14T06:02:26.026Z,100.00
2023-02-14T06:05:19.907Z,100.00
2023-02-14T06:08:20.880Z,100.00
2023-02-14T06:11:20.949Z,100.00
2023-02-14T06:14:22.902Z,100.00
2023-02-14T06:17:23.897Z,100.00
2023-02-14T06:20:24.851Z,100.00
2023-02-14T06:23:24.968Z,100.00
2023-02-14T06:26:24.942Z,100.00
2023-02-14T06:29:24.913Z,100.00
2023-02-14T06:32:24.910Z,100.00
2023-02-14T06:35:24.970Z,100.00
2023-02-14T06:38:26.040Z,100.00
2023-02-14T06:41:26.926Z,100.00
2023-02-14T06:44:26.900Z,100.00
2023-02-14T06:47:28.130Z,100.00
2023-02-14T06:50:28.916Z,100.00
2023-02-14T06:53:29.952Z,100.00
2023-02-14T06:56:29.964Z,100.00
2023-02-14T06:59:29.975Z,100.00
2023-02-14T07:02:32.367Z,100.00
2023-02-14T07:05:33.049Z,100.00
2023-02-14T07:08:39.960Z,100.00
2023-02-14T07:11:40.982Z,98.81
2023-02-14T07:14:42.232Z,97.41
2023-02-14T07:17:43.978Z,97.95
2023-02-14T07:20:44.983Z,97.94
2023-02-14T07:23:48.268Z,94.64
2023-02-14T07:27:02.585Z,93.51
2023-02-14T07:30:07.072Z,89.68
2023-02-14T07:33:07.021Z,85.41
2023-02-14T07:36:10.004Z,84.00
2023-02-14T07:39:11.004Z,81.21
2023-02-14T07:42:11.986Z,78.69
2023-02-14T07:45:21.522Z,75.61
2023-02-14T07:48:22.037Z,74.58
2023-02-14T07:51:23.091Z,73.83
2023-02-14T07:54:24.027Z,73.06
2023-02-14T07:57:25.117Z,73.63
2023-02-14T08:00:25.431Z,73.57
2023-02-14T08:03:33.170Z,72.96
2023-02-14T08:06:34.108Z,73.04
2023-02-14T08:09:34.153Z,73.85
2023-02-14T08:12:56.119Z,74.28
2023-02-14T08:16:12.112Z,74.32
2023-02-14T08:19:12.229Z,74.52
2023-02-14T08:22:14.257Z,73.40
2023-02-14T08:25:14.188Z,72.85
2023-02-14T08:28:17.508Z,73.36
2023-02-14T08:31:30.050Z,73.84
2023-02-14T08:34:42.631Z,74.28
2023-02-14T08:37:45.356Z,74.59
2023-02-14T08:40:45.144Z,74.84
2023-02-14T08:43:46.139Z,75.09
2023-02-14T08:46:46.138Z,75.33
2023-02-14T08:49:46.113Z,75.73
2023-02-14T08:52:47.223Z,75.49
2023-02-14T08:55:48.218Z,75.29
2023-02-14T08:58:49.231Z,75.63
2023-02-14T09:01:50.192Z,75.84
2023-02-14T09:04:51.204Z,75.73
2023-02-14T09:07:52.214Z,75.94
2023-02-14T09:10:53.126Z,75.61
2023-02-14T09:13:55.528Z,75.86
2023-02-14T09:16:58.301Z,75.88
2023-02-14T09:19:59.226Z,75.64
2023-02-14T09:23:05.825Z,75.16
2023-02-14T09:26:18.280Z,75.00
2023-02-14T09:29:19.197Z,75.32
2023-02-14T09:32:21.267Z,75.61
2023-02-14T09:35:21.261Z,75.50
2023-02-14T09:38:27.220Z,75.75
2023-02-14T09:41:42.224Z,75.98
2023-02-14T09:44:56.470Z,76.26
2023-02-14T09:48:21.272Z,76.75
2023-02-14T09:51:31.321Z,76.90
2023-02-14T09:54:40.236Z,77.21
2023-02-14T09:58:06.260Z,77.41
2023-02-14T10:01:10.328Z,77.14
2023-02-14T10:04:33.230Z,77.10
2023-02-14T10:07:40.267Z,76.85
2023-02-14T10:10:55.285Z,76.53
2023-02-14T10:14:04.286Z,74.54
2023-02-14T10:17:07.339Z,71.62
2023-02-14T10:20:11.262Z,70.21
2023-02-14T10:23:18.423Z,69.03
2023-02-14T10:26:22.251Z,68.43
2023-02-14T10:29:26.305Z,67.27
2023-02-14T10:32:28.279Z,66.69
2023-02-14T10:35:47.506Z,66.62
2023-02-14T10:39:11.306Z,65.01
2023-02-14T10:42:44.031Z,64.13
2023-02-14T10:46:02.340Z,63.67
2023-02-14T10:49:15.170Z,64.33
2023-02-14T10:52:28.331Z,64.23
2023-02-14T10:55:36.331Z,63.42
2023-02-14T10:58:36.322Z,59.62
2023-02-14T11:01:36.378Z,59.12
2023-02-14T11:04:36.340Z,58.71
2023-02-14T11:07:39.468Z,58.06
2023-02-14T11:10:45.439Z,56.15
2023-02-14T11:13:53.392Z,54.74
2023-02-14T11:16:57.625Z,54.16
2023-02-14T11:20:03.373Z,53.07
2023-02-14T11:23:06.429Z,53.45
2023-02-14T11:26:08.396Z,53.65
2023-02-14T11:29:14.393Z,52.65
2023-02-14T11:32:22.908Z,52.48
2023-02-14T11:35:33.776Z,53.18
2023-02-14T11:38:48.407Z,52.89
2023-02-14T11:42:06.779Z,52.29
2023-02-14T11:45:09.424Z,53.20
2023-02-14T11:48:41.444Z,54.03
2023-02-14T11:51:42.467Z,55.11
2023-02-14T11:54:50.524Z,55.77
2023-02-14T11:57:51.668Z,56.78
2023-02-14T12:00:52.503Z,57.39
2023-02-14T12:03:57.509Z,58.09
2023-02-14T12:07:01.689Z,58.77
2023-02-14T12:10:03.764Z,59.09
2023-02-14T12:13:07.660Z,59.48
2023-02-14T12:16:12.582Z,60.11
2023-02-14T12:19:17.074Z,60.71
2023-02-14T12:22:19.764Z,61.31
2023-02-14T12:25:37.498Z,61.89
2023-02-14T12:28:56.185Z,62.56
2023-02-14T12:32:01.497Z,63.06
2023-02-14T12:35:16.674Z,63.55
2023-02-14T12:38:51.893Z,63.11
2023-02-14T12:42:14.899Z,62.76
2023-02-14T12:45:26.038Z,62.29
2023-02-14T12:48:47.068Z,62.46
2023-02-14T12:51:58.417Z,62.99
2023-02-14T12:55:06.697Z,63.08
2023-02-14T12:58:27.122Z,63.28
2023-02-14T13:01:54.825Z,62.87
2023-02-14T13:05:10.040Z,62.57
2023-02-14T13:08:15.776Z,62.62
2023-02-14T13:11:46.751Z,62.56
2023-02-14T13:14:54.661Z,62.53
2023-02-14T13:17:58.890Z,61.88
2023-02-14T13:21:14.788Z,60.86
2023-02-14T13:24:33.726Z,60.48
2023-02-14T13:27:35.811Z,60.56
2023-02-14T13:30:37.825Z,61.10
2023-02-14T13:33:59.214Z,61.40
2023-02-14T13:37:01.054Z,61.82
2023-02-14T13:40:09.078Z,61.86
2023-02-14T13:43:13.761Z,61.75
2023-02-14T13:46:14.667Z,61.88
2023-02-14T13:49:43.848Z,61.97
2023-02-14T13:52:52.777Z,61.21
2023-02-14T13:56:01.956Z,60.76
2023-02-14T13:59:16.674Z,60.88
2023-02-14T14:02:54.692Z,61.05
2023-02-14T14:05:55.710Z,61.30
2023-02-14T14:09:02.688Z,61.49
2023-02-14T14:12:03.699Z,61.51
2023-02-14T14:15:17.660Z,61.97
2023-02-14T14:18:50.711Z,62.37
2023-02-14T14:21:54.811Z,62.43
2023-02-14T14:25:03.775Z,62.80
2023-02-14T14:28:03.719Z,62.67
2023-02-14T14:31:04.795Z,62.96
2023-02-14T14:34:14.733Z,62.27
2023-02-14T14:37:29.747Z,61.98
2023-02-14T14:40:37.844Z,61.56
2023-02-14T14:43:42.759Z,60.81
2023-02-14T14:46:44.848Z,60.32
2023-02-14T14:49:44.932Z,60.08
2023-02-14T14:52:52.782Z,60.20
2023-02-14T14:55:59.080Z,60.65
2023-02-14T14:58:59.744Z,60.95
2023-02-14T15:02:00.768Z,61.64
2023-02-14T15:05:01.026Z,62.08
2023-02-14T15:08:01.746Z,62.65
2023-02-14T15:11:14.817Z,63.05
2023-02-14T15:14:14.826Z,63.39
2023-02-14T15:17:38.837Z,63.77
2023-02-14T15:20:39.902Z,64.13
2023-02-14T15:23:40.889Z,64.23
2023-02-14T15:26:54.960Z,64.09
2023-02-14T15:29:56.026Z,64.83
2023-02-14T15:33:00.861Z,64.90
2023-02-14T15:36:01.016Z,65.25
2023-02-14T15:39:06.526Z,65.44
2023-02-14T15:42:07.866Z,65.85
2023-02-14T15:45:34.841Z,65.80
2023-02-14T15:48:41.891Z,65.94
2023-02-14T15:51:45.927Z,65.74
2023-02-14T15:54:50.998Z,66.06
2023-02-14T15:57:53.830Z,65.78
2023-02-14T16:00:56.896Z,66.13
2023-02-14T16:04:05.923Z,66.49
2023-02-14T16:07:29.267Z,66.75
2023-02-14T16:10:37.924Z,67.58
2023-02-14T16:13:49.884Z,67.88
2023-02-14T16:17:12.398Z,68.30
2023-02-14T16:20:36.387Z,69.06
2023-02-14T16:23:44.887Z,69.66
2023-02-14T16:26:49.878Z,69.83
2023-02-14T16:29:52.018Z,70.24
2023-02-14T16:32:51.987Z,70.58
2023-02-14T16:35:53.937Z,70.91
2023-02-14T16:38:56.919Z,71.06
2023-02-14T16:41:58.180Z,71.62
2023-02-14T16:44:59.922Z,71.46
2023-02-14T16:48:00.935Z,71.54
2023-02-14T16:51:02.230Z,71.50
2023-02-14T16:54:04.191Z,71.38
2023-02-14T16:57:12.951Z,71.70
2023-02-14T17:00:12.983Z,71.66
2023-02-14T17:03:17.198Z,71.35
2023-02-14T17:06:18.193Z,71.35
2023-02-14T17:09:22.971Z,71.45
2023-02-14T17:12:27.949Z,71.57
2023-02-14T17:15:32.961Z,71.36
2023-02-14T17:18:34.197Z,71.88
2023-02-14T17:21:35.034Z,72.60
2023-02-14T17:24:36.004Z,73.34
2023-02-14T17:27:36.968Z,74.54
2023-02-14T17:30:38.980Z,75.17
2023-02-14T17:33:56.075Z,76.83
2023-02-14T17:36:57.086Z,77.04
2023-02-14T17:39:57.996Z,77.45
2023-02-14T17:43:07.809Z,77.98
2023-02-14T17:46:09.071Z,78.81
2023-02-14T17:49:10.128Z,79.07
2023-02-14T17:52:09.999Z,79.59
2023-02-14T17:55:11.093Z,80.22
2023-02-14T17:58:12.231Z,80.58
2023-02-14T18:01:20.317Z,80.36
2023-02-14T18:04:21.073Z,80.50
2023-02-14T18:07:24.108Z,80.57
2023-02-14T18:10:27.055Z,80.23
2023-02-14T18:13:30.450Z,80.17
2023-02-14T18:16:33.275Z,79.94
2023-02-14T18:19:33.212Z,79.70
2023-02-14T18:22:54.105Z,79.86
2023-02-14T18:25:55.570Z,79.58
2023-02-14T18:28:57.232Z,79.24
2023-02-14T18:31:58.476Z,79.44
2023-02-14T18:34:59.070Z,79.25
2023-02-14T18:38:02.073Z,79.05
2023-02-14T18:41:02.259Z,79.23
2023-02-14T18:44:03.113Z,78.92
2023-02-14T18:47:06.103Z,78.47
2023-02-14T18:50:19.121Z,78.64
2023-02-14T18:53:20.114Z,78.39
2023-02-14T18:56:27.551Z,78.04
2023-02-14T18:59:28.590Z,77.72
2023-02-14T19:02:30.224Z,77.60
2023-02-14T19:05:32.170Z,77.28
2023-02-14T19:08:33.152Z,76.90
2023-02-14T19:11:37.607Z,76.62
2023-02-14T19:14:38.247Z,76.14
2023-02-14T19:17:47.174Z,75.48
2023-02-14T19:20:47.201Z,75.19
2023-02-14T19:23:47.563Z,74.77
2023-02-14T19:26:51.368Z,74.44
2023-02-14T19:29:52.789Z,73.95
2023-02-14T19:32:56.158Z,73.53
2023-02-14T19:35:56.191Z,73.07
2023-02-14T19:39:01.178Z,72.40
2023-02-14T19:42:02.241Z,71.97
2023-02-14T19:45:02.263Z,72.11
2023-02-14T19:48:06.213Z,71.93
2023-02-14T19:51:07.407Z,71.58
2023-02-14T19:54:07.236Z,71.29
2023-02-14T20:00:59.811Z,71.15
2023-02-14T20:04:01.151Z,70.76
2023-02-14T20:07:02.117Z,70.82
2023-02-14T20:10:06.547Z,70.69
2023-02-14T20:13:08.083Z,70.71
2023-02-14T20:16:08.643Z,70.89
2023-02-14T20:19:10.141Z,70.93
2023-02-14T20:22:18.180Z,70.99
2023-02-14T20:25:21.168Z,71.05
2023-02-14T20:28:26.366Z,70.85
2023-02-14T20:31:35.329Z,71.14
2023-02-14T20:34:38.341Z,71.31
2023-02-14T20:37:40.225Z,71.56
2023-02-14T20:40:40.494Z,71.71
2023-02-14T20:43:42.369Z,71.69
2023-02-14T20:46:51.467Z,71.77
2023-02-14T20:49:52.134Z,72.06
2023-02-14T20:52:53.292Z,71.85
2023-02-14T20:55:55.209Z,71.54
2023-02-14T20:58:58.338Z,71.45
2023-02-14T21:02:00.193Z,71.13
2023-02-14T21:05:11.000Z,71.30
2023-02-14T21:08:13.230Z,70.55
2023-02-14T21:11:22.147Z,70.20
2023-02-14T21:14:23.324Z,69.72
2023-02-14T21:17:24.260Z,69.71
2023-02-14T21:20:25.367Z,69.27
2023-02-14T21:23:27.769Z,69.01
2023-02-14T21:26:35.272Z,68.69
2023-02-14T21:29:38.263Z,68.51
2023-02-14T21:32:44.047Z,68.07
2023-02-14T21:35:49.316Z,68.37
2023-02-14T21:38:50.249Z,67.91
2023-02-14T21:41:51.274Z,68.01
2023-02-14T21:45:10.249Z,67.51
2023-02-14T21:48:36.364Z,67.62
2023-02-14T21:51:36.254Z,67.42
2023-02-14T21:54:42.259Z,67.60
2023-02-14T21:57:45.752Z,67.40
2023-02-14T22:00:48.339Z,67.22
2023-02-14T22:03:49.264Z,67.33
2023-02-14T22:06:51.444Z,67.43
2023-02-14T22:09:53.296Z,67.24
2023-02-14T22:12:55.768Z,67.53
2023-02-14T22:15:59.395Z,67.62
2023-02-14T22:19:00.346Z,67.56
2023-02-14T22:22:03.380Z,67.77
2023-02-14T22:25:06.370Z,67.51
2023-02-14T22:28:11.392Z,67.83
2023-02-14T22:31:16.359Z,67.87
2023-02-14T22:34:19.216Z,67.98
2023-02-14T22:37:21.897Z,68.29
2023-02-14T22:40:23.445Z,68.37
2023-02-14T22:43:24.374Z,68.37
2023-02-14T22:46:28.602Z,68.52
2023-02-14T22:49:30.334Z,68.62
2023-02-14T22:52:31.388Z,68.44
2023-02-14T22:55:32.376Z,68.69
2023-02-14T22:58:33.108Z,68.27
2023-02-14T23:01:33.464Z,68.18
2023-02-14T23:04:37.391Z,68.48
2023-02-14T23:07:38.344Z,68.84
2023-02-14T23:10:39.382Z,69.09
2023-02-14T23:13:59.403Z,68.67
2023-02-14T23:17:12.408Z,68.90
2023-02-14T23:20:34.520Z,69.09
2023-02-14T23:23:35.410Z,69.14
2023-02-14T23:26:37.360Z,68.65
2023-02-14T23:29:38.442Z,68.92
2023-02-14T23:32:39.392Z,68.82
2023-02-14T23:35:48.442Z,69.18
2023-02-14T23:39:03.662Z,69.28
2023-02-14T23:42:04.441Z,69.63
2023-02-14T23:45:24.689Z,70.32
2023-02-14T23:48:25.465Z,70.68
2023-02-14T23:51:25.474Z,71.08
2023-02-14T23:54:25.488Z,71.34
2023-02-14T23:57:25.692Z,71.46
